Time;durP1;ratioP1;P1;durP2;ratioP2;P2;SDS_P1;SDS_P2;PMS_P1;PMS_P2;Temp;Humidity;BMP_temperature;BMP_pressure;BME280_temperature;BME280_humidity;BME280_pressure;Samples;Min_cycle;Max_cycle;Signal;HPM_P1;HPM_P2
2021/12/27 00:02:54;;;;;;;17.50;15.73;;;6.40;47.50;;;;;;10350501;28;20237;-70
2021/12/27 00:07:58;;;;;;;17.37;15.67;;;6.40;47.50;;;;;;10351292;28;20238;-70
2021/12/27 00:13:04;;;;;;;16.83;15.23;;;6.40;47.40;;;;;;10352539;28;20234;-70
2021/12/27 00:18:07;;;;;;;16.03;14.43;;;6.40;47.70;;;;;;10349829;28;20721;-70
2021/12/27 00:23:10;;;;;;;17.17;15.37;;;6.50;47.60;;;;;;10349803;28;20230;-70
2021/12/27 00:28:15;;;;;;;17.20;15.47;;;6.50;47.50;;;;;;10344318;28;20234;-70
2021/12/27 00:33:18;;;;;;;17.23;15.43;;;6.50;47.50;;;;;;10347686;28;20333;-70
2021/12/27 00:38:22;;;;;;;17.40;15.60;;;6.50;47.40;;;;;;10350221;28;20288;-70
2021/12/27 00:43:26;;;;;;;18.17;16.27;;;6.50;47.40;;;;;;10360101;28;20232;-70
2021/12/27 00:48:30;;;;;;;17.17;15.47;;;6.50;47.60;;;;;;10359715;28;20230;-70
2021/12/27 00:53:33;;;;;;;17.63;15.83;;;6.50;47.40;;;;;;10356807;28;20224;-70
2021/12/27 00:58:37;;;;;;;17.53;15.73;;;6.50;47.50;;;;;;10355388;28;20231;-70
2021/12/27 01:03:40;;;;;;;17.20;15.40;;;6.40;47.40;;;;;;10360830;28;20602;-70
2021/12/27 01:08:43;;;;;;;17.17;15.47;;;6.40;47.40;;;;;;10356066;28;20236;-70
2021/12/27 01:14:00;;;;;;;15.77;14.07;;;6.40;47.60;;;;;;10362298;28;20230;-70
2021/12/27 01:19:05;;;;;;;17.37;15.63;;;6.30;47.70;;;;;;10358280;28;20221;-70
2021/12/27 01:24:08;;;;;;;16.97;15.27;;;6.30;47.70;;;;;;10360114;28;20234;-70
2021/12/27 01:29:13;;;;;;;17.93;16.20;;;6.30;47.60;;;;;;10358142;28;20614;-70
2021/12/27 01:34:16;;;;;;;18.40;16.43;;;6.40;47.80;;;;;;10357074;28;20226;-70
2021/12/27 01:39:22;;;;;;;18.47;16.57;;;6.40;47.60;;;;;;10359481;28;20607;-70
2021/12/27 01:44:27;;;;;;;18.50;16.43;;;6.30;47.50;;;;;;10356935;28;20234;-70
2021/12/27 01:49:30;;;;;;;19.87;17.80;;;6.30;47.70;;;;;;10361113;28;20218;-70
2021/12/27 01:54:33;;;;;;;17.80;15.93;;;6.40;47.80;;;;;;10353922;28;20226;-70
2021/12/27 01:59:38;;;;;;;18.80;16.90;;;6.30;47.70;;;;;;10358964;28;20256;-69
2021/12/27 02:04:41;;;;;;;18.43;16.53;;;6.30;47.90;;;;;;10356697;28;20238;-70
2021/12/27 02:09:56;;;;;;;18.80;16.90;;;6.40;47.90;;;;;;10353933;28;20223;-70
2021/12/27 02:15:05;;;;;;;17.60;15.67;;;6.40;47.90;;;;;;10355257;28;20266;-70
2021/12/27 02:20:15;;;;;;;17.67;15.87;;;6.40;47.80;;;;;;10354673;28;20226;-70
2021/12/27 02:25:19;;;;;;;18.77;16.77;;;6.40;47.90;;;;;;10355678;28;20594;-70
2021/12/27 02:30:23;;;;;;;18.13;16.33;;;6.40;47.80;;;;;;10356215;28;20717;-70
2021/12/27 02:35:29;;;;;;;17.70;15.10;;;6.50;47.90;;;;;;10356209;28;20230;-70
2021/12/27 02:40:33;;;;;;;18.47;16.53;;;6.50;48.10;;;;;;10350736;28;20615;-70
2021/12/27 02:45:39;;;;;;;17.83;16.00;;;6.50;47.90;;;;;;10348617;28;20227;-70
2021/12/27 02:50:46;;;;;;;16.70;15.10;;;6.60;48.10;;;;;;10355603;28;20230;-70
2021/12/27 02:55:51;;;;;;;18.57;16.67;;;6.60;48.00;;;;;;10352546;28;20237;-70
2021/12/27 03:00:59;;;;;;;18.17;16.30;;;6.60;47.90;;;;;;10352827;28;20227;-70
2021/12/27 03:06:05;;;;;;;18.53;16.57;;;6.60;47.90;;;;;;10354034;28;20225;-70
2021/12/27 03:11:10;;;;;;;17.23;15.53;;;6.60;47.70;;;;;;10350422;28;20226;-70
2021/12/27 03:16:16;;;;;;;17.53;15.73;;;6.60;47.70;;;;;;10354870;28;20226;-70
2021/12/27 03:21:21;;;;;;;17.87;16.00;;;6.60;47.80;;;;;;10349485;28;20233;-70
2021/12/27 03:26:24;;;;;;;18.33;16.37;;;6.60;47.80;;;;;;10352413;28;20234;-70
2021/12/27 03:31:27;;;;;;;17.40;15.47;;;6.60;47.70;;;;;;10351758;28;20234;-70
2021/12/27 03:36:37;;;;;;;18.47;16.60;;;6.50;47.80;;;;;;10350697;28;20241;-70
2021/12/27 03:41:41;;;;;;;18.00;16.07;;;6.50;48.00;;;;;;10351752;28;20232;-70
2021/12/27 03:46:44;;;;;;;18.13;16.23;;;6.50;47.90;;;;;;10352385;28;20234;-70
2021/12/27 03:51:48;;;;;;;17.67;15.87;;;6.50;47.90;;;;;;10346709;28;20230;-70
2021/12/27 03:56:52;;;;;;;16.67;15.00;;;6.60;48.10;;;;;;10352105;28;20264;-69
2021/12/27 04:01:55;;;;;;;18.30;16.50;;;6.60;48.20;;;;;;10348581;28;20237;-70
2021/12/27 04:06:59;;;;;;;16.03;14.43;;;6.70;48.20;;;;;;10351703;28;20227;-70
2021/12/27 04:12:03;;;;;;;16.03;14.43;;;6.80;48.30;;;;;;10350050;28;20557;-70
2021/12/27 04:17:07;;;;;;;16.60;14.90;;;6.90;48.30;;;;;;10346501;28;20319;-70
2021/12/27 04:22:12;;;;;;;21.40;17.73;;;6.90;48.10;;;;;;10350219;28;20241;-70
2021/12/27 04:27:15;;;;;;;23.13;19.70;;;7.00;48.00;;;;;;10345932;28;20708;-70
2021/12/27 04:32:18;;;;;;;21.00;18.70;;;7.00;47.90;;;;;;10346884;28;20233;-70
2021/12/27 04:37:23;;;;;;;18.37;16.57;;;7.00;47.80;;;;;;10353035;28;20237;-70
2021/12/27 04:42:29;;;;;;;18.30;16.57;;;6.90;47.80;;;;;;10354121;28;20244;-70
2021/12/27 04:47:32;;;;;;;17.67;15.87;;;6.90;47.80;;;;;;10355073;28;20222;-70
2021/12/27 04:52:36;;;;;;;17.03;15.27;;;6.90;47.80;;;;;;10351384;28;20226;-70
2021/12/27 04:57:40;;;;;;;16.97;15.27;;;6.90;47.80;;;;;;10348783;28;20722;-70
2021/12/27 05:02:43;;;;;;;16.97;15.23;;;6.90;47.70;;;;;;10353011;28;20407;-69
2021/12/27 05:07:48;;;;;;;15.07;13.57;;;6.90;47.90;;;;;;10350616;28;20601;-70
2021/12/27 05:12:51;;;;;;;17.00;15.23;;;6.90;48.10;;;;;;10350609;28;20230;-70
2021/12/27 05:17:54;;;;;;;15.53;14.03;;;7.00;48.10;;;;;;10356003;28;20222;-70
2021/12/27 05:22:59;;;;;;;16.53;14.83;;;7.00;48.10;;;;;;10351448;28;20222;-70
2021/12/27 05:28:02;;;;;;;13.27;11.97;;;7.00;48.30;;;;;;10360047;28;20246;-71
2021/12/27 05:33:05;;;;;;;15.90;14.40;;;7.10;48.20;;;;;;10354037;28;20607;-70
2021/12/27 05:38:10;;;;;;;17.17;15.43;;;7.20;48.10;;;;;;10360401;28;20589;-70
2021/12/27 05:43:13;;;;;;;14.73;13.27;;;7.20;48.10;;;;;;10354876;28;20237;-70
2021/12/27 05:48:16;;;;;;;15.77;14.20;;;7.20;48.00;;;;;;10354618;28;20227;-70
2021/12/27 05:53:21;;;;;;;17.67;15.93;;;7.20;48.00;;;;;;10351599;28;20715;-70
2021/12/27 05:58:25;;;;;;;15.97;14.30;;;7.20;48.10;;;;;;10354920;28;20230;-69
2021/12/27 06:03:28;;;;;;;17.57;15.87;;;7.20;47.90;;;;;;10353844;28;20250;-69
2021/12/27 06:08:33;;;;;;;17.80;15.97;;;7.20;47.80;;;;;;10355606;28;20244;-69
2021/12/27 06:13:36;;;;;;;17.37;15.57;;;7.20;47.90;;;;;;10350685;28;20236;-69
2021/12/27 06:18:39;;;;;;;16.67;15.10;;;7.10;47.90;;;;;;10353959;28;20238;-69
2021/12/27 06:23:46;;;;;;;15.83;14.33;;;7.10;48.00;;;;;;10353586;28;20245;-69
2021/12/27 06:28:49;;;;;;;16.67;15.07;;;7.20;48.20;;;;;;10355377;28;20305;-69
2021/12/27 06:33:52;;;;;;;15.87;14.27;;;7.20;48.20;;;;;;10355217;28;20234;-69
2021/12/27 06:38:56;;;;;;;16.20;14.60;;;7.20;48.20;;;;;;10354556;28;20253;-69
2021/12/27 06:44:00;;;;;;;16.83;15.07;;;7.20;48.10;;;;;;10351925;28;20226;-68
2021/12/27 06:49:03;;;;;;;15.77;14.17;;;7.20;48.00;;;;;;10355377;28;20214;-69
2021/12/27 06:54:07;;;;;;;15.10;13.63;;;7.20;48.00;;;;;;10357027;28;20227;-69
2021/12/27 06:59:10;;;;;;;15.80;14.23;;;7.30;48.20;;;;;;10351188;28;20594;-69
2021/12/27 07:04:14;;;;;;;18.23;16.33;;;7.30;48.10;;;;;;10355401;28;20323;-69
2021/12/27 07:09:18;;;;;;;16.97;15.37;;;7.30;48.00;;;;;;10354021;28;20277;-69
2021/12/27 07:14:22;;;;;;;17.07;15.47;;;7.30;48.00;;;;;;10352012;28;20238;-69
2021/12/27 07:19:25;;;;;;;17.50;15.70;;;7.30;47.90;;;;;;10351490;28;20707;-69
2021/12/27 07:24:29;;;;;;;19.23;17.30;;;7.40;48.00;;;;;;10356402;28;20234;-69
2021/12/27 07:29:32;;;;;;;20.53;17.73;;;7.40;47.90;;;;;;10352218;28;20230;-69
2021/12/27 07:34:36;;;;;;;17.73;15.93;;;7.40;47.80;;;;;;10352713;28;20230;-69
2021/12/27 07:39:40;;;;;;;19.80;17.20;;;7.30;47.90;;;;;;10350236;28;20269;-69
2021/12/27 07:44:45;;;;;;;19.73;17.60;;;7.30;47.80;;;;;;10351709;28;20222;-69
2021/12/27 07:49:48;;;;;;;19.70;17.70;;;7.30;47.90;;;;;;10352223;28;20233;-69
2021/12/27 07:54:53;;;;;;;20.07;18.10;;;7.30;47.90;;;;;;10347171;28;20239;-69
2021/12/27 07:59:56;;;;;;;20.03;17.97;;;7.30;48.00;;;;;;10348451;28;20234;-69
2021/12/27 08:04:59;;;;;;;18.00;16.20;;;7.30;48.10;;;;;;10353469;28;20235;-69
2021/12/27 08:10:06;;;;;;;19.80;17.70;;;7.30;48.10;;;;;;10351929;28;20368;-70
2021/12/27 08:15:11;;;;;;;19.23;17.40;;;7.30;48.00;;;;;;10352144;28;20253;-70
2021/12/27 08:20:14;;;;;;;20.40;18.30;;;7.30;47.90;;;;;;10353490;28;20698;-69
2021/12/27 08:25:19;;;;;;;20.47;18.43;;;7.30;48.10;;;;;;10355319;28;20226;-69
2021/12/27 08:30:22;;;;;;;18.83;16.97;;;7.30;48.10;;;;;;10356944;28;20583;-69
2021/12/27 08:35:26;;;;;;;17.30;15.53;;;7.30;48.10;;;;;;10350265;28;20593;-69
2021/12/27 08:40:31;;;;;;;19.60;17.60;;;7.40;48.30;;;;;;10353837;28;20229;-69
2021/12/27 08:45:34;;;;;;;20.53;18.53;;;7.40;48.30;;;;;;10350895;28;20236;-69
2021/12/27 08:50:38;;;;;;;20.53;18.47;;;7.40;48.30;;;;;;10355175;28;20257;-69
2021/12/27 08:55:43;;;;;;;18.83;16.83;;;7.50;48.20;;;;;;10350804;28;20358;-69
2021/12/27 09:00:46;;;;;;;20.13;18.00;;;7.50;48.30;;;;;;10356472;28;20231;-69
2021/12/27 09:05:50;;;;;;;19.40;17.40;;;7.50;48.20;;;;;;10358281;28;20225;-69
2021/12/27 09:10:57;;;;;;;20.10;18.07;;;7.50;48.40;;;;;;10356853;28;20222;-69
2021/12/27 09:16:01;;;;;;;20.63;18.53;;;7.50;48.60;;;;;;10359395;28;20225;-69
2021/12/27 09:21:06;;;;;;;19.73;17.73;;;7.60;48.60;;;;;;10356334;28;20344;-69
2021/12/27 09:26:11;;;;;;;18.80;16.90;;;7.60;48.60;;;;;;10354775;28;20731;-69
2021/12/27 09:31:14;;;;;;;18.60;16.70;;;7.60;48.60;;;;;;10355523;28;20353;-69
2021/12/27 09:36:17;;;;;;;21.63;19.43;;;7.70;48.80;;;;;;10356144;28;20227;-70
2021/12/27 09:41:22;;;;;;;20.83;18.73;;;7.70;48.70;;;;;;10356062;28;20231;-70
2021/12/27 09:46:25;;;;;;;20.13;18.13;;;7.80;48.90;;;;;;10356179;28;20229;-69
2021/12/27 09:51:30;;;;;;;20.27;18.07;;;7.80;48.70;;;;;;10350607;28;20875;-70
2021/12/27 09:56:35;;;;;;;20.83;18.73;;;7.80;48.80;;;;;;10356473;28;20269;-69
2021/12/27 10:01:38;;;;;;;21.57;19.23;;;7.90;48.90;;;;;;10351434;28;20684;-69
2021/12/27 10:06:42;;;;;;;21.63;19.43;;;8.00;48.80;;;;;;10355760;28;20231;-69
2021/12/27 10:11:51;;;;;;;20.57;18.57;;;8.00;48.80;;;;;;10356124;28;20211;-69
2021/12/27 10:17:05;;;;;;;20.30;18.20;;;8.00;48.80;;;;;;10356748;28;20591;-69
2021/12/27 10:22:12;;;;;;;21.80;19.60;;;8.10;48.80;;;;;;10353052;28;20703;-69
2021/12/27 10:27:16;;;;;;;22.47;20.17;;;8.10;48.90;;;;;;10359743;28;20226;-69
2021/12/27 10:32:20;;;;;;;21.07;18.97;;;8.20;48.70;;;;;;10352683;28;20236;-69
2021/12/27 10:37:25;;;;;;;19.03;17.17;;;8.20;48.70;;;;;;10354400;28;20607;-69
2021/12/27 10:42:32;;;;;;;20.47;18.27;;;8.30;48.80;;;;;;10354184;28;20234;-69
2021/12/27 10:47:41;;;;;;;19.03;17.13;;;8.30;49.00;;;;;;10348739;28;20226;-69
2021/12/27 10:52:54;;;;;;;19.47;17.43;;;8.40;49.30;;;;;;10350590;28;20233;-69
2021/12/27 10:58:18;;;;;;;18.43;16.53;;;8.50;49.30;;;;;;10352664;28;20240;-69
2021/12/27 11:03:26;;;;;;;18.53;16.67;;;8.60;49.30;;;;;;10353685;28;20229;-69
2021/12/27 11:08:30;;;;;;;19.37;17.37;;;8.70;49.30;;;;;;10346306;28;20241;-69
2021/12/27 11:13:35;;;;;;;20.43;18.33;;;8.70;49.00;;;;;;10353935;28;20225;-69
2021/12/27 11:18:38;;;;;;;18.17;16.30;;;8.80;49.00;;;;;;10353795;28;20605;-69
2021/12/27 11:23:42;;;;;;;19.40;17.40;;;8.80;49.00;;;;;;10349571;28;20227;-69
2021/12/27 11:29:15;;;;;;;18.17;16.27;;;8.90;49.10;;;;;;10352402;28;20361;-69
2021/12/27 11:34:19;;;;;;;17.60;15.87;;;9.00;49.70;;;;;;10349947;28;20702;-69
2021/12/27 11:39:27;;;;;;;16.40;14.70;;;9.00;49.30;;;;;;10354272;28;20229;-69
2021/12/27 11:44:37;;;;;;;17.17;15.47;;;9.00;49.40;;;;;;10351437;28;20235;-69
2021/12/27 11:49:55;;;;;;;15.37;13.03;;;9.10;49.60;;;;;;10345395;28;20450;-69
2021/12/27 11:55:01;;;;;;;15.07;13.60;;;9.10;49.60;;;;;;10351429;28;20226;-69
2021/12/27 12:00:43;;;;;;;15.83;14.10;;;9.10;49.30;;;;;;10352286;28;20210;-69
2021/12/27 12:05:49;;;;;;;16.90;15.17;;;9.20;49.60;;;;;;10343247;28;20522;-69
2021/12/27 12:10:59;;;;;;;17.77;15.97;;;9.20;49.10;;;;;;10347636;28;20252;-69
2021/12/27 12:16:06;;;;;;;19.30;17.23;;;9.20;49.20;;;;;;10354136;28;20219;-70
2021/12/27 12:21:40;;;;;;;20.57;18.37;;;9.30;49.00;;;;;;10353339;28;20233;-69
2021/12/27 12:26:52;;;;;;;20.70;18.57;;;9.30;49.00;;;;;;10351842;28;20609;-69
2021/12/27 12:32:05;;;;;;;19.63;17.63;;;9.30;48.90;;;;;;10345715;28;20292;-70
2021/12/27 12:37:12;;;;;;;19.67;17.57;;;9.30;48.80;;;;;;10347088;28;20227;-69
2021/12/27 12:42:17;;;;;;;18.63;16.73;;;9.30;48.60;;;;;;10345193;28;20241;-69
2021/12/27 12:47:22;;;;;;;18.23;16.33;;;9.30;48.40;;;;;;10353678;28;20614;-69
2021/12/27 12:52:27;;;;;;;17.87;16.07;;;9.30;48.40;;;;;;10347797;28;20222;-69
2021/12/27 12:57:30;;;;;;;19.00;17.10;;;9.30;48.20;;;;;;10351589;28;20601;-69
2021/12/27 13:02:35;;;;;;;16.90;15.30;;;9.30;48.20;;;;;;10344902;28;20587;-69
2021/12/27 13:07:44;;;;;;;16.83;15.13;;;9.30;48.10;;;;;;10347192;28;20601;-69
2021/12/27 13:12:47;;;;;;;17.53;15.83;;;9.20;47.80;;;;;;10349748;28;20234;-69
2021/12/27 13:18:05;;;;;;;17.73;16.03;;;9.20;47.90;;;;;;10351999;28;20302;-69
2021/12/27 13:23:11;;;;;;;18.57;16.83;;;9.20;47.70;;;;;;10350791;28;20218;-69
2021/12/27 13:28:19;;;;;;;18.70;16.90;;;9.10;47.60;;;;;;10344573;28;20585;-70
2021/12/27 13:33:24;;;;;;;18.23;16.33;;;9.10;47.50;;;;;;10352178;28;20235;-69
2021/12/27 13:38:30;;;;;;;18.73;16.93;;;9.00;47.40;;;;;;10346619;28;20680;-69
2021/12/27 13:43:34;;;;;;;19.10;17.23;;;9.00;47.30;;;;;;10353883;28;20221;-70
2021/12/27 13:48:39;;;;;;;18.67;16.80;;;8.90;47.20;;;;;;10356137;28;20352;-70
2021/12/27 13:53:53;;;;;;;18.63;16.70;;;8.90;47.40;;;;;;10354155;28;20238;-69
2021/12/27 13:59:02;;;;;;;20.60;18.53;;;8.80;47.20;;;;;;10353935;28;20226;-69
2021/12/27 14:04:16;;;;;;;22.43;19.90;;;8.80;47.20;;;;;;10351414;28;20233;-70
2021/12/27 14:09:37;;;;;;;18.53;16.50;;;8.70;47.00;;;;;;10354523;28;20230;-69
2021/12/27 14:14:42;;;;;;;18.67;16.77;;;8.70;47.20;;;;;;10356345;28;20234;-69
2021/12/27 14:19:47;;;;;;;17.33;15.53;;;8.70;47.40;;;;;;10359927;28;20600;-72
2021/12/27 14:24:57;;;;;;;16.93;15.30;;;8.60;47.20;;;;;;10355407;28;20236;-72
2021/12/27 14:30:18;;;;;;;19.20;17.10;;;8.60;47.10;;;;;;10355185;28;20233;-72
2021/12/27 14:35:26;;;;;;;17.33;15.73;;;8.60;46.90;;;;;;10354722;28;20244;-72
2021/12/27 14:40:32;;;;;;;17.47;15.63;;;8.60;46.90;;;;;;10351475;28;20229;-72
2021/12/27 14:45:38;;;;;;;17.20;15.50;;;8.50;46.60;;;;;;10354348;28;20749;-72
2021/12/27 14:50:42;;;;;;;17.53;15.73;;;8.40;46.40;;;;;;10349957;28;20785;-72
2021/12/27 14:55:49;;;;;;;16.63;15.00;;;8.20;46.50;;;;;;10355205;28;20238;-72
2021/12/27 15:00:56;;;;;;;16.47;14.87;;;8.10;46.70;;;;;;10353958;28;20625;-72
2021/12/27 15:05:59;;;;;;;16.37;14.67;;;8.00;46.80;;;;;;10352919;28;20310;-73
2021/12/27 15:11:04;;;;;;;16.20;14.60;;;7.90;47.00;;;;;;10353905;28;20233;-72
2021/12/27 15:16:07;;;;;;;15.60;14.00;;;7.80;47.10;;;;;;10356251;28;20241;-72
2021/12/27 15:21:10;;;;;;;15.63;14.13;;;7.70;47.10;;;;;;10353626;28;20219;-72
2021/12/27 15:26:15;;;;;;;15.63;14.13;;;7.60;47.40;;;;;;10348549;28;20222;-72
2021/12/27 15:31:19;;;;;;;15.30;13.80;;;7.60;47.70;;;;;;10353951;28;20226;-72
2021/12/27 15:36:22;;;;;;;15.47;13.87;;;7.60;47.40;;;;;;10354499;28;20357;-72
2021/12/27 15:41:27;;;;;;;15.57;14.00;;;7.60;47.20;;;;;;10351872;28;20230;-72
2021/12/27 15:46:31;;;;;;;15.67;14.00;;;7.60;47.20;;;;;;10350260;28;20238;-72
2021/12/27 15:51:34;;;;;;;15.47;13.80;;;7.50;47.40;;;;;;10350548;28;20723;-72
2021/12/27 15:56:38;;;;;;;16.00;14.40;;;7.50;47.60;;;;;;10352116;28;20706;-72
2021/12/27 16:01:41;;;;;;;17.43;15.60;;;7.50;47.50;;;;;;10349247;28;20222;-72
2021/12/27 16:06:45;;;;;;;18.40;16.37;;;7.50;47.50;;;;;;10348397;28;20234;-72
2021/12/27 16:11:50;;;;;;;18.13;15.87;;;7.60;47.40;;;;;;10350834;28;20232;-72
2021/12/27 16:16:55;;;;;;;17.87;16.07;;;7.50;47.20;;;;;;10346340;28;20313;-72
2021/12/27 16:21:58;;;;;;;16.63;14.87;;;7.50;47.40;;;;;;10349810;28;20331;-72
2021/12/27 16:27:04;;;;;;;14.07;12.53;;;7.50;47.40;;;;;;10343483;28;20242;-72
2021/12/27 16:32:08;;;;;;;16.67;14.87;;;7.50;47.70;;;;;;10346478;28;20225;-72
2021/12/27 16:37:11;;;;;;;17.40;15.50;;;7.50;47.80;;;;;;10350538;28;20234;-72
2021/12/27 16:42:16;;;;;;;17.47;15.63;;;7.50;47.80;;;;;;10348858;28;20233;-72
2021/12/27 16:47:19;;;;;;;17.63;15.83;;;7.60;47.60;;;;;;10352360;28;20242;-71
2021/12/27 16:52:23;;;;;;;18.37;16.47;;;7.60;47.40;;;;;;10352068;28;20789;-71
2021/12/27 16:57:28;;;;;;;22.87;19.73;;;7.60;47.40;;;;;;10353233;28;20590;-71
2021/12/27 17:02:31;;;;;;;24.60;18.33;;;7.50;47.20;;;;;;10345118;28;20234;-72
2021/12/27 17:07:35;;;;;;;21.67;18.83;;;7.50;47.50;;;;;;10344317;28;20284;-71
2021/12/27 17:12:39;;;;;;;23.20;19.50;;;7.50;47.60;;;;;;10348845;28;20238;-71
2021/12/27 17:17:42;;;;;;;21.97;19.03;;;7.50;47.60;;;;;;10349000;28;20234;-71
2021/12/27 17:22:45;;;;;;;21.07;17.63;;;7.50;47.60;;;;;;10356591;28;20227;-71
2021/12/27 17:27:50;;;;;;;18.70;16.63;;;7.50;47.30;;;;;;10358960;28;20234;-71
2021/12/27 17:32:54;;;;;;;20.43;17.70;;;7.50;47.30;;;;;;10359689;28;20227;-72
2021/12/27 17:37:57;;;;;;;21.70;18.23;;;7.50;47.40;;;;;;10355590;28;20230;-72
2021/12/27 17:43:02;;;;;;;22.37;19.93;;;7.50;47.40;;;;;;10353785;28;20707;-71
2021/12/27 17:48:08;;;;;;;23.30;20.87;;;7.50;47.20;;;;;;10356312;28;20237;-72
2021/12/27 17:53:11;;;;;;;28.57;25.13;;;7.50;47.10;;;;;;10354683;28;20737;-72
2021/12/27 17:58:16;;;;;;;24.33;21.70;;;7.50;47.10;;;;;;10358421;28;20237;-72
2021/12/27 18:03:19;;;;;;;25.43;21.37;;;7.40;47.30;;;;;;10355284;28;20229;-72
2021/12/27 18:08:22;;;;;;;28.53;22.00;;;7.40;47.40;;;;;;10353627;28;20234;-72
2021/12/27 18:13:27;;;;;;;25.83;21.77;;;7.40;47.40;;;;;;10355549;28;20233;-71
2021/12/27 18:18:30;;;;;;;27.37;22.07;;;7.50;47.50;;;;;;10356894;28;20497;-72
2021/12/27 18:23:34;;;;;;;27.07;22.87;;;7.50;47.40;;;;;;10357999;28;20232;-72
2021/12/27 18:28:39;;;;;;;30.00;24.00;;;7.60;47.50;;;;;;10349017;28;20585;-72
2021/12/27 18:33:42;;;;;;;28.90;23.73;;;7.50;47.20;;;;;;10358477;28;20222;-71
2021/12/27 18:38:45;;;;;;;26.07;22.20;;;7.50;47.30;;;;;;10355933;28;20605;-72
2021/12/27 18:43:50;;;;;;;31.10;27.17;;;7.50;47.20;;;;;;10358207;28;20233;-71
2021/12/27 18:48:54;;;;;;;31.13;25.27;;;7.50;46.90;;;;;;10355391;28;20610;-71
2021/12/27 18:53:57;;;;;;;28.00;23.77;;;7.40;46.80;;;;;;10354988;28;20233;-71
2021/12/27 18:59:01;;;;;;;30.43;24.00;;;7.30;47.10;;;;;;10354132;28;20229;-71
2021/12/27 19:04:05;;;;;;;31.80;24.97;;;7.30;47.30;;;;;;10344125;28;20218;-72
2021/12/27 19:09:08;;;;;;;29.37;23.53;;;7.20;47.30;;;;;;10353296;28;20234;-71
2021/12/27 19:14:12;;;;;;;32.73;25.60;;;7.20;47.50;;;;;;10349553;28;20227;-72
2021/12/27 19:19:16;;;;;;;31.13;25.87;;;7.30;47.50;;;;;;10349344;28;20611;-72
2021/12/27 19:24:20;;;;;;;31.30;24.73;;;7.30;47.40;;;;;;10354616;28;20749;-72
2021/12/27 19:29:25;;;;;;;33.43;27.67;;;7.30;47.40;;;;;;10351844;28;20322;-71
2021/12/27 19:34:28;;;;;;;30.63;24.90;;;7.30;47.40;;;;;;10352185;28;20622;-72
2021/12/27 19:39:31;;;;;;;30.67;23.20;;;7.30;47.30;;;;;;10351185;28;20227;-72
2021/12/27 19:44:36;;;;;;;36.10;27.20;;;7.20;47.20;;;;;;10348395;28;20235;-72
2021/12/27 19:49:40;;;;;;;34.87;27.53;;;7.10;47.40;;;;;;10349669;28;20603;-72
2021/12/27 19:54:43;;;;;;;32.30;25.37;;;7.00;47.60;;;;;;10348974;28;20237;-72
2021/12/27 19:59:48;;;;;;;35.93;28.33;;;7.00;47.70;;;;;;10355291;28;20233;-72
2021/12/27 20:04:51;;;;;;;33.40;25.87;;;7.00;47.90;;;;;;10349182;28;20257;-72
2021/12/27 20:09:54;;;;;;;32.83;25.93;;;7.00;48.00;;;;;;10349553;28;20226;-72
2021/12/27 20:14:59;;;;;;;37.50;27.80;;;7.00;48.00;;;;;;10352062;28;20739;-72
2021/12/27 20:20:02;;;;;;;40.37;28.87;;;7.10;48.20;;;;;;10353394;28;20222;-71
2021/12/27 20:25:06;;;;;;;34.87;27.13;;;7.10;48.10;;;;;;10354243;28;20717;-71
2021/12/27 20:30:12;;;;;;;35.60;26.77;;;7.10;48.00;;;;;;10351251;28;20723;-71
2021/12/27 20:35:15;;;;;;;38.20;29.03;;;7.10;48.10;;;;;;10348037;28;20226;-71
2021/12/27 20:40:19;;;;;;;39.13;30.17;;;7.10;48.00;;;;;;10350413;28;20222;-71
2021/12/27 20:45:24;;;;;;;37.03;27.87;;;7.10;48.00;;;;;;10350246;28;20240;-71
2021/12/27 20:50:30;;;;;;;34.50;26.40;;;7.20;48.20;;;;;;10351770;28;20321;-71
2021/12/27 20:55:33;;;;;;;34.83;27.43;;;7.20;48.20;;;;;;10356865;28;20632;-71
2021/12/27 21:00:41;;;;;;;36.97;27.83;;;7.20;48.10;;;;;;10358192;28;20229;-71
2021/12/27 21:05:48;;;;;;;35.43;27.90;;;7.20;48.10;;;;;;10353406;28;20245;-71
2021/12/27 21:10:52;;;;;;;37.70;27.53;;;7.20;48.00;;;;;;10359731;28;20222;-71
2021/12/27 21:15:57;;;;;;;32.10;25.40;;;7.20;48.00;;;;;;10355878;28;20229;-71
2021/12/27 21:21:04;;;;;;;35.43;26.13;;;7.20;48.10;;;;;;10357540;28;20683;-71
2021/12/27 21:26:08;;;;;;;33.47;25.97;;;7.20;48.10;;;;;;10362158;28;20639;-71
2021/12/27 21:31:12;;;;;;;35.07;25.60;;;7.20;48.10;;;;;;10356768;28;20228;-71
2021/12/27 21:36:19;;;;;;;31.43;25.20;;;7.20;48.30;;;;;;10362232;28;20226;-71
2021/12/27 21:41:22;;;;;;;34.60;25.07;;;7.20;48.20;;;;;;10358462;28;20606;-71
2021/12/27 21:46:31;;;;;;;30.17;23.70;;;7.20;48.20;;;;;;10355423;28;20238;-70
2021/12/27 21:51:36;;;;;;;35.63;26.43;;;7.30;48.30;;;;;;10358159;28;20843;-71
2021/12/27 21:56:39;;;;;;;34.87;27.00;;;7.30;48.30;;;;;;10361368;28;20590;-71
2021/12/27 22:01:43;;;;;;;35.50;27.80;;;7.30;48.20;;;;;;10355584;28;20234;-71
2021/12/27 22:06:47;;;;;;;35.67;26.10;;;7.30;48.30;;;;;;10349906;28;20255;-71
2021/12/27 22:11:50;;;;;;;34.63;26.17;;;7.30;48.10;;;;;;10355617;28;20589;-71
2021/12/27 22:17:09;;;;;;;36.27;27.67;;;7.30;48.10;;;;;;10355180;28;20690;-70
2021/12/27 22:22:12;;;;;;;37.03;27.33;;;7.30;48.10;;;;;;10355592;28;20239;-71
2021/12/27 22:27:15;;;;;;;35.07;26.37;;;7.20;48.10;;;;;;10351741;28;20227;-71
2021/12/27 22:32:20;;;;;;;33.90;25.47;;;7.20;48.20;;;;;;10357925;28;20218;-71
2021/12/27 22:37:23;;;;;;;34.63;25.90;;;7.20;48.40;;;;;;10353479;28;20226;-71
2021/12/27 22:42:26;;;;;;;36.03;26.07;;;7.20;48.30;;;;;;10353771;28;20237;-71
2021/12/27 22:47:32;;;;;;;35.00;26.67;;;7.20;48.40;;;;;;10352352;28;20234;-71
2021/12/27 22:52:35;;;;;;;33.70;25.20;;;7.20;48.50;;;;;;10353210;28;20738;-71
2021/12/27 22:57:38;;;;;;;36.00;25.93;;;7.20;48.60;;;;;;10349306;28;20234;-71
2021/12/27 23:02:42;;;;;;;35.90;26.60;;;7.20;48.60;;;;;;10352231;28;20883;-71
2021/12/27 23:07:46;;;;;;;34.00;24.23;;;7.30;48.70;;;;;;10352405;28;20238;-71
2021/12/27 23:12:49;;;;;;;31.90;24.23;;;7.30;48.60;;;;;;10353765;28;20233;-71
2021/12/27 23:17:54;;;;;;;28.77;22.63;;;7.30;48.60;;;;;;10351616;28;20257;-70
2021/12/27 23:22:57;;;;;;;27.90;21.67;;;7.40;48.80;;;;;;10348684;28;20222;-71
2021/12/27 23:28:04;;;;;;;28.00;22.23;;;7.40;48.70;;;;;;10355285;28;20223;-70
2021/12/27 23:33:14;;;;;;;30.03;23.37;;;7.40;48.70;;;;;;10355555;28;20226;-70
2021/12/27 23:38:20;;;;;;;28.00;22.43;;;7.50;48.80;;;;;;10356058;28;20229;-70
2021/12/27 23:43:23;;;;;;;28.97;24.23;;;7.50;49.00;;;;;;10351446;28;20230;-70
2021/12/27 23:48:28;;;;;;;27.10;21.30;;;7.50;48.80;;;;;;10352743;28;20237;-70
2021/12/27 23:53:32;;;;;;;25.07;20.83;;;7.60;49.00;;;;;;10346204;28;20230;-70
2021/12/27 23:58:36;;;;;;;24.43;19.30;;;7.60;48.90;;;;;;10352146;28;20219;-70
